createdAt,value
2023-09-22T00:00:12.702Z,14.40
2023-09-22T00:00:42.263Z,14.40
2023-09-22T00:01:13.260Z,14.40
2023-09-22T00:01:44.876Z,14.40
2023-09-22T00:02:15.607Z,14.40
2023-09-22T00:02:47.194Z,14.40
2023-09-22T00:03:17.726Z,14.40
2023-09-22T00:03:48.822Z,14.40
2023-09-22T00:04:20.453Z,14.40
2023-09-22T00:04:50.825Z,14.40
2023-09-22T00:05:20.881Z,14.40
2023-09-22T00:05:52.707Z,14.40
2023-09-22T00:06:23.571Z,14.40
2023-09-22T00:06:54.124Z,14.40
2023-09-22T00:07:25.784Z,14.40
2023-09-22T00:07:59.206Z,14.40
2023-09-22T00:08:37.154Z,14.30
2023-09-22T00:08:58.785Z,14.30
2023-09-22T00:09:29.820Z,14.30
2023-09-22T00:10:01.212Z,14.30
2023-09-22T00:10:32.183Z,14.30
2023-09-22T00:11:02.831Z,14.40
2023-09-22T00:11:34.007Z,14.40
2023-09-22T00:12:12.221Z,14.40
2023-09-22T00:12:34.908Z,14.40
2023-09-22T00:13:09.866Z,14.40
2023-09-22T00:13:38.189Z,14.40
2023-09-22T00:14:09.189Z,14.40
2023-09-22T00:14:40.007Z,14.40
2023-09-22T00:15:12.737Z,14.40
2023-09-22T00:15:41.929Z,14.40
2023-09-22T00:16:12.484Z,14.40
2023-09-22T00:16:43.341Z,14.40
2023-09-22T00:17:32.743Z,14.40
2023-09-22T00:17:45.692Z,14.40
2023-09-22T00:18:16.942Z,14.40
2023-09-22T00:18:47.600Z,14.40
2023-09-22T00:20:43.259Z,14.40
2023-09-22T00:20:51.520Z,14.40
2023-09-22T00:21:22.680Z,14.40
2023-09-22T00:21:53.882Z,14.40
2023-09-22T00:22:24.077Z,14.40
2023-09-22T00:22:59.239Z,14.40
2023-09-22T00:23:27.932Z,14.40
2023-09-22T00:23:59.641Z,14.40
2023-09-22T00:24:59.549Z,14.40
2023-09-22T00:25:30.962Z,14.40
2023-09-22T00:26:02.343Z,14.40
2023-09-22T00:26:33.236Z,14.40
2023-09-22T00:27:04.228Z,14.30
2023-09-22T00:27:34.872Z,14.30
2023-09-22T00:28:05.710Z,14.30
2023-09-22T00:28:37.075Z,14.30
2023-09-22T00:29:07.501Z,14.30
2023-09-22T00:29:39.079Z,14.30
2023-09-22T00:30:12.039Z,14.30
2023-09-22T00:30:41.759Z,14.30
2023-09-22T00:31:11.835Z,14.30
2023-09-22T00:31:50.670Z,14.30
2023-09-22T00:37:23.685Z,14.20
2023-09-22T00:37:55.217Z,14.20
2023-09-22T00:38:24.921Z,14.20
2023-09-22T00:38:56.008Z,14.20
2023-09-22T00:39:27.215Z,14.20
2023-09-22T00:39:58.122Z,14.20
2023-09-22T00:40:29.021Z,14.20
2023-09-22T00:41:00.250Z,14.20
2023-09-22T00:41:31.412Z,14.20
2023-09-22T00:42:02.879Z,14.20
2023-09-22T00:42:33.902Z,14.20
2023-09-22T00:43:04.484Z,14.10
2023-09-22T00:43:34.865Z,14.10
2023-09-22T00:44:06.048Z,14.10
2023-09-22T00:44:54.966Z,14.10
2023-09-22T00:45:09.654Z,14.10
2023-09-22T00:45:39.495Z,14.10
2023-09-22T00:46:10.283Z,14.10
2023-09-22T00:46:41.224Z,14.10
2023-09-22T00:47:12.390Z,14.10
2023-09-22T00:47:43.609Z,14.10
2023-09-22T00:48:14.201Z,14.10
2023-09-22T00:48:45.422Z,14.00
2023-09-22T00:49:16.150Z,14.00
2023-09-22T00:49:47.322Z,14.00
2023-09-22T00:50:19.390Z,14.00
2023-09-22T00:50:50.277Z,14.00
2023-09-22T00:51:20.020Z,14.00
2023-09-22T00:51:51.401Z,14.00
2023-09-22T00:52:22.956Z,14.00
2023-09-22T00:52:53.465Z,14.00
2023-09-22T00:53:41.481Z,14.00
2023-09-22T00:53:55.641Z,14.00
2023-09-22T00:54:26.542Z,14.00
2023-09-22T00:54:57.376Z,14.00
2023-09-22T00:55:28.243Z,14.00
2023-09-22T00:56:00.006Z,14.00
2023-09-22T00:56:31.580Z,13.90
2023-09-22T00:57:04.295Z,13.90
2023-09-22T00:57:32.863Z,13.90
2023-09-22T00:58:04.098Z,13.90
2023-09-22T00:58:34.950Z,13.90
2023-09-22T00:59:05.221Z,13.90
2023-09-22T00:59:37.896Z,13.90
2023-09-22T01:00:08.482Z,13.90
2023-09-22T01:00:38.897Z,13.90
2023-09-22T01:01:10.162Z,13.90
2023-09-22T01:01:41.343Z,13.90
2023-09-22T01:02:29.954Z,13.90
2023-09-22T01:02:44.554Z,13.90
2023-09-22T01:03:14.748Z,13.90
2023-09-22T01:03:45.544Z,13.90
2023-09-22T01:04:16.212Z,13.90
2023-09-22T01:04:46.797Z,13.90
2023-09-22T01:05:17.718Z,13.90
2023-09-22T01:05:49.324Z,13.90
2023-09-22T01:06:19.880Z,13.90
2023-09-22T01:06:50.889Z,13.80
2023-09-22T01:07:21.289Z,13.80
2023-09-22T01:07:52.648Z,13.80
2023-09-22T01:08:24.211Z,13.80
2023-09-22T01:08:54.862Z,13.80
2023-09-22T01:09:26.740Z,13.80
2023-09-22T01:09:56.543Z,13.80
2023-09-22T01:10:28.322Z,13.80
2023-09-22T01:10:58.374Z,13.80
2023-09-22T01:11:29.301Z,13.80
2023-09-22T01:12:00.030Z,13.80
2023-09-22T01:12:31.793Z,13.80
2023-09-22T01:13:02.899Z,13.80
2023-09-22T01:13:34.616Z,13.80
2023-09-22T01:14:04.537Z,13.80
2023-09-22T01:14:35.713Z,13.80
2023-09-22T01:15:07.983Z,13.80
2023-09-22T01:15:38.369Z,13.80
2023-09-22T01:16:08.444Z,13.80
2023-09-22T01:16:39.202Z,13.80
2023-09-22T01:17:14.048Z,13.80
2023-09-22T01:17:42.416Z,13.80
2023-09-22T01:18:12.125Z,13.80
2023-09-22T01:18:44.035Z,13.80
2023-09-22T01:19:14.589Z,13.80
2023-09-22T01:19:46.906Z,13.80
2023-09-22T01:20:19.270Z,13.80
2023-09-22T01:20:48.774Z,13.80
2023-09-22T01:21:18.809Z,13.80
2023-09-22T01:21:49.964Z,13.80
2023-09-22T01:22:22.096Z,13.80
2023-09-22T01:22:52.021Z,13.80
2023-09-22T01:23:23.429Z,13.80
2023-09-22T01:23:54.482Z,13.80
2023-09-22T01:24:24.935Z,13.80
2023-09-22T01:24:55.577Z,13.80
2023-09-22T01:25:26.821Z,13.80
2023-09-22T01:25:58.340Z,13.80
2023-09-22T01:26:28.226Z,13.80
2023-09-22T01:26:59.216Z,13.80
2023-09-22T01:27:30.884Z,13.80
2023-09-22T01:28:01.809Z,13.80
2023-09-22T01:28:33.014Z,13.80
2023-09-22T01:29:04.124Z,13.80
2023-09-22T01:29:35.134Z,13.80
2023-09-22T01:30:07.458Z,13.80
2023-09-22T01:30:36.182Z,13.80
2023-09-22T01:31:07.422Z,13.80
2023-09-22T01:31:39.255Z,13.80
2023-09-22T01:32:09.439Z,13.80
2023-09-22T01:32:41.493Z,13.80
2023-09-22T01:33:12.165Z,13.80
2023-09-22T01:33:43.807Z,13.80
2023-09-22T01:34:16.126Z,13.80
2023-09-22T01:34:45.003Z,13.80
2023-09-22T01:35:15.790Z,13.80
2023-09-22T01:35:46.388Z,13.80
2023-09-22T01:36:18.203Z,13.80
2023-09-22T01:36:48.564Z,13.80
2023-09-22T01:37:19.827Z,13.80
2023-09-22T01:37:51.564Z,13.80
2023-09-22T01:38:22.246Z,13.80
2023-09-22T01:38:52.963Z,13.90
2023-09-22T01:39:25.049Z,13.90
2023-09-22T01:39:55.965Z,13.90
2023-09-22T01:40:27.293Z,13.90
2023-09-22T01:40:56.682Z,13.90
2023-09-22T01:41:27.961Z,13.90
2023-09-22T01:41:58.363Z,13.90
2023-09-22T01:42:30.152Z,13.90
2023-09-22T01:43:01.874Z,13.90
2023-09-22T01:43:31.727Z,13.90
2023-09-22T01:44:03.312Z,13.90
2023-09-22T01:44:33.990Z,13.90
2023-09-22T01:45:08.010Z,13.90
2023-09-22T01:45:36.170Z,13.90
2023-09-22T01:46:06.972Z,13.90
2023-09-22T01:46:37.599Z,13.90
2023-09-22T01:47:08.990Z,13.90
2023-09-22T01:47:39.579Z,13.90
2023-09-22T01:48:10.963Z,13.90
2023-09-22T01:48:41.522Z,13.90
2023-09-22T01:49:13.483Z,13.90
2023-09-22T01:49:44.150Z,13.90
2023-09-22T01:50:15.508Z,13.90
2023-09-22T01:50:45.924Z,13.90
2023-09-22T01:51:16.790Z,13.90
2023-09-22T01:51:47.669Z,13.90
2023-09-22T01:52:19.216Z,13.90
2023-09-22T01:52:50.071Z,13.90
2023-09-22T01:53:20.663Z,13.90
2023-09-22T01:53:51.568Z,13.90
2023-09-22T01:54:23.046Z,13.90
2023-09-22T01:54:54.342Z,13.90
2023-09-22T01:55:25.044Z,13.90
2023-09-22T01:55:55.662Z,13.90
2023-09-22T01:56:26.723Z,13.90
2023-09-22T01:56:57.499Z,13.90
2023-09-22T01:57:28.707Z,13.90
2023-09-22T01:57:59.893Z,13.90
2023-09-22T01:58:30.879Z,13.90
2023-09-22T01:59:02.467Z,13.90
2023-09-22T01:59:32.682Z,13.90
2023-09-22T02:00:06.062Z,13.90
2023-09-22T02:01:06.046Z,13.90
2023-09-22T02:01:36.854Z,13.90
2023-09-22T02:02:25.417Z,13.90
2023-09-22T02:02:40.691Z,13.80
2023-09-22T02:03:11.447Z,13.80
2023-09-22T02:03:41.004Z,13.80
2023-09-22T02:04:12.997Z,13.80
2023-09-22T02:04:43.382Z,13.80
2023-09-22T02:05:16.251Z,13.80
2023-09-22T02:05:45.284Z,13.80
2023-09-22T02:06:17.484Z,13.80
2023-09-22T02:06:46.813Z,13.80
2023-09-22T02:07:18.346Z,13.80
2023-09-22T02:07:48.446Z,13.80
2023-09-22T02:08:20.654Z,13.80
2023-09-22T02:08:51.396Z,13.80
2023-09-22T02:09:22.242Z,13.80
2023-09-22T02:09:53.758Z,13.80
2023-09-22T02:10:24.674Z,13.80
2023-09-22T02:11:13.365Z,13.70
2023-09-22T02:11:25.650Z,13.70
2023-09-22T02:11:56.785Z,13.70
2023-09-22T02:12:28.540Z,13.70
2023-09-22T02:12:59.183Z,13.70
2023-09-22T02:13:29.538Z,13.70
2023-09-22T02:14:18.056Z,13.70
2023-09-22T02:14:31.481Z,13.70
2023-09-22T02:15:03.826Z,13.70
2023-09-22T02:15:33.812Z,13.70
2023-09-22T02:16:05.393Z,13.70
2023-09-22T02:16:36.064Z,13.70
2023-09-22T02:17:07.098Z,13.70
2023-09-22T02:17:37.711Z,13.70
2023-09-22T02:18:09.598Z,13.70
2023-09-22T02:18:39.880Z,13.70
2023-09-22T02:19:12.986Z,13.70
2023-09-22T02:19:41.521Z,13.70
2023-09-22T02:20:13.275Z,13.70
2023-09-22T02:20:45.324Z,13.70
2023-09-22T02:21:15.491Z,13.70
2023-09-22T02:21:46.370Z,13.70
2023-09-22T02:22:17.165Z,13.70
2023-09-22T02:23:06.201Z,13.70
2023-09-22T02:23:20.508Z,13.70
2023-09-22T02:23:51.161Z,13.70
2023-09-22T02:24:23.007Z,13.70
2023-09-22T02:24:51.570Z,13.70
2023-09-22T02:25:22.613Z,13.70
2023-09-22T02:25:54.456Z,13.70
2023-09-22T02:26:25.738Z,13.60
2023-09-22T02:26:55.823Z,13.60
2023-09-22T02:27:26.823Z,13.60
2023-09-22T02:27:58.199Z,13.60
2023-09-22T02:28:28.747Z,13.60
2023-09-22T02:28:59.324Z,13.60
2023-09-22T02:29:31.463Z,13.60
2023-09-22T02:30:03.021Z,13.60
2023-09-22T02:31:04.798Z,13.60
2023-09-22T02:31:35.675Z,13.60
2023-09-22T02:32:22.912Z,13.60
2023-09-22T02:32:37.112Z,13.60
2023-09-22T02:33:08.270Z,13.60
2023-09-22T02:33:38.962Z,13.60
2023-09-22T02:34:10.866Z,13.60
2023-09-22T02:34:40.550Z,13.60
2023-09-22T02:35:12.478Z,13.60
2023-09-22T02:35:42.716Z,13.60
2023-09-22T02:36:13.909Z,13.60
2023-09-22T02:36:45.851Z,13.60
2023-09-22T02:37:16.369Z,13.60
2023-09-22T02:37:46.576Z,13.60
2023-09-22T02:38:18.409Z,13.60
2023-09-22T02:38:48.583Z,13.60
2023-09-22T02:39:20.323Z,13.60
2023-09-22T02:39:51.594Z,13.60
2023-09-22T02:40:23.063Z,13.50
2023-09-22T02:40:53.892Z,13.50
2023-09-22T02:41:24.004Z,13.50
2023-09-22T02:41:55.579Z,13.50
2023-09-22T02:42:26.721Z,13.50
2023-09-22T02:42:57.147Z,13.50
2023-09-22T02:43:28.131Z,13.50
2023-09-22T02:43:58.607Z,13.50
2023-09-22T02:44:30.149Z,13.50
2023-09-22T02:45:01.659Z,13.50
2023-09-22T02:45:33.095Z,13.50
2023-09-22T02:46:02.819Z,13.50
2023-09-22T02:46:35.121Z,13.50
2023-09-22T02:47:05.992Z,13.50
2023-09-22T02:47:36.241Z,13.50
2023-09-22T02:48:07.351Z,13.50
2023-09-22T02:49:08.996Z,13.50
2023-09-22T02:49:40.435Z,13.50
2023-09-22T02:50:11.810Z,13.50
2023-09-22T02:50:41.963Z,13.50
2023-09-22T02:51:13.534Z,13.50
2023-09-22T02:51:44.620Z,13.50
2023-09-22T02:52:14.972Z,13.50
2023-09-22T02:52:46.478Z,13.50
2023-09-22T02:53:17.281Z,13.50
2023-09-22T02:53:48.089Z,13.50
2023-09-22T02:54:19.897Z,13.50
2023-09-22T02:54:50.899Z,13.50
2023-09-22T02:55:21.617Z,13.50
2023-09-22T02:55:52.454Z,13.50
2023-09-22T02:56:23.149Z,13.50
2023-09-22T02:56:54.149Z,13.50
2023-09-22T02:57:25.868Z,13.50
2023-09-22T02:57:56.036Z,13.50
2023-09-22T02:58:27.323Z,13.50
2023-09-22T02:58:58.168Z,13.50
2023-09-22T02:59:28.437Z,13.50
2023-09-22T02:59:59.335Z,13.50
2023-09-22T03:00:31.994Z,13.50
2023-09-22T03:01:03.264Z,13.50
2023-09-22T03:01:33.528Z,13.50
2023-09-22T03:02:04.640Z,13.50
2023-09-22T03:02:36.251Z,13.50
2023-09-22T03:03:06.687Z,13.50
2023-09-22T03:03:37.395Z,13.50
2023-09-22T03:04:08.480Z,13.50
2023-09-22T03:04:38.870Z,13.50
2023-09-22T03:05:11.157Z,13.50
2023-09-22T03:05:40.691Z,13.50
2023-09-22T03:06:12.349Z,13.50
2023-09-22T03:06:43.097Z,13.50
2023-09-22T03:07:15.231Z,13.40
2023-09-22T03:07:47.583Z,13.40
2023-09-22T03:08:19.226Z,13.40
2023-09-22T03:08:47.601Z,13.40
2023-09-22T03:09:36.903Z,13.40
2023-09-22T03:09:49.523Z,13.40
2023-09-22T03:10:37.846Z,13.40
2023-09-22T03:10:51.356Z,13.40
2023-09-22T03:11:22.000Z,13.40
2023-09-22T03:11:52.916Z,13.40
2023-09-22T03:12:24.207Z,13.40
2023-09-22T03:12:55.456Z,13.40
2023-09-22T03:13:26.477Z,13.40
2023-09-22T03:13:57.063Z,13.40
2023-09-22T03:14:28.094Z,13.40
2023-09-22T03:14:59.316Z,13.40
2023-09-22T03:15:30.270Z,13.40
2023-09-22T03:16:01.353Z,13.40
2023-09-22T03:16:32.942Z,13.40
2023-09-22T03:17:20.796Z,13.30
2023-09-22T03:17:33.941Z,13.30
2023-09-22T03:18:05.390Z,13.40
2023-09-22T03:18:36.737Z,13.40
2023-09-22T03:19:07.099Z,13.40
2023-09-22T03:19:39.190Z,13.40
2023-09-22T03:20:09.593Z,13.40
2023-09-22T03:20:39.786Z,13.30
2023-09-22T03:21:11.993Z,13.30
2023-09-22T03:21:41.542Z,13.30
2023-09-22T03:22:13.155Z,13.30
2023-09-22T03:22:43.958Z,13.30
2023-09-22T03:23:15.605Z,13.30
2023-09-22T03:23:46.051Z,13.30
2023-09-22T03:24:17.203Z,13.30
2023-09-22T03:24:48.236Z,13.30
2023-09-22T03:25:18.772Z,13.30
2023-09-22T03:25:49.780Z,13.30
2023-09-22T03:26:21.069Z,13.30
2023-09-22T03:26:52.747Z,13.30
2023-09-22T03:27:22.844Z,13.30
2023-09-22T03:27:54.218Z,13.30
2023-09-22T03:28:25.303Z,13.30
2023-09-22T03:28:56.392Z,13.30
2023-09-22T03:29:27.085Z,13.30
2023-09-22T03:29:57.859Z,13.30
2023-09-22T03:30:29.888Z,13.30
2023-09-22T03:31:01.101Z,13.30
2023-09-22T03:31:31.079Z,13.30
2023-09-22T03:32:02.190Z,13.30
2023-09-22T03:32:33.655Z,13.30
2023-09-22T03:33:03.857Z,13.30
2023-09-22T03:33:35.659Z,13.30
2023-09-22T03:34:06.187Z,13.30
2023-09-22T03:34:37.057Z,13.30
2023-09-22T03:35:10.137Z,13.30
2023-09-22T03:35:38.983Z,13.30
2023-09-22T03:36:10.442Z,13.30
2023-09-22T03:37:11.930Z,13.30
2023-09-22T03:37:43.245Z,13.20
2023-09-22T03:38:14.055Z,13.20
2023-09-22T03:38:46.129Z,13.20
2023-09-22T03:39:17.056Z,13.20
2023-09-22T03:39:48.953Z,13.20
2023-09-22T03:40:18.402Z,13.20
2023-09-22T03:40:49.673Z,13.30
2023-09-22T03:41:19.936Z,13.30
2023-09-22T03:41:52.250Z,13.30
2023-09-22T03:42:22.307Z,13.30
2023-09-22T03:42:52.477Z,13.30
2023-09-22T03:43:24.171Z,13.30
2023-09-22T03:43:55.402Z,13.30
2023-09-22T03:44:26.221Z,13.30
2023-09-22T03:44:57.286Z,13.30
2023-09-22T03:45:28.735Z,13.30
2023-09-22T03:45:59.136Z,13.30
2023-09-22T03:46:30.880Z,13.30
2023-09-22T03:47:01.255Z,13.30
2023-09-22T03:47:31.840Z,13.30
2023-09-22T03:48:03.620Z,13.30
2023-09-22T03:48:33.896Z,13.30
2023-09-22T03:49:07.621Z,13.30
2023-09-22T03:49:36.738Z,13.40
2023-09-22T03:50:08.982Z,13.40
2023-09-22T03:50:38.315Z,13.40
2023-09-22T03:51:09.842Z,13.40
2023-09-22T03:51:57.999Z,13.40
2023-09-22T03:52:11.356Z,13.40
2023-09-22T03:52:41.831Z,13.40
2023-09-22T03:53:13.238Z,13.40
2023-09-22T03:53:43.684Z,13.40
2023-09-22T03:54:15.677Z,13.40
2023-09-22T03:54:46.547Z,13.40
2023-09-22T03:55:17.200Z,13.40
2023-09-22T03:55:48.298Z,13.40
2023-09-22T03:56:19.126Z,13.40
2023-09-22T03:56:50.880Z,13.50
2023-09-22T03:57:21.609Z,13.50
2023-09-22T03:57:52.018Z,13.50
2023-09-22T03:58:23.058Z,13.50
2023-09-22T03:58:53.971Z,13.50
2023-09-22T03:59:56.268Z,13.50
2023-09-22T04:00:29.183Z,13.50
2023-09-22T04:00:59.097Z,13.50
2023-09-22T04:01:30.294Z,13.50
2023-09-22T04:02:00.054Z,13.50
2023-09-22T04:02:36.126Z,13.50
2023-09-22T04:03:05.305Z,13.50
2023-09-22T04:03:33.367Z,13.50
2023-09-22T04:04:04.921Z,13.50
2023-09-22T04:04:37.016Z,13.50
2023-09-22T04:05:07.433Z,13.60
2023-09-22T04:05:40.423Z,13.60
2023-09-22T04:06:11.951Z,13.60
2023-09-22T04:06:40.001Z,13.60
2023-09-22T04:07:13.519Z,13.60
2023-09-22T04:07:41.647Z,13.60
2023-09-22T04:08:45.051Z,13.60
2023-09-22T04:09:17.653Z,13.60
2023-09-22T04:09:47.256Z,13.60
2023-09-22T04:10:20.050Z,13.60
2023-09-22T04:10:47.601Z,13.60
2023-09-22T04:11:27.219Z,13.60
2023-09-22T04:11:50.194Z,13.60
2023-09-22T04:12:24.566Z,13.60
2023-09-22T04:12:52.184Z,13.60
2023-09-22T04:13:25.374Z,13.60
2023-09-22T04:14:27.669Z,13.60
2023-09-22T04:14:57.012Z,13.60
2023-09-22T04:15:59.610Z,13.60
2023-09-22T04:16:28.832Z,13.60
2023-09-22T04:16:59.801Z,13.60
2023-09-22T04:17:30.976Z,13.60
2023-09-22T04:18:01.123Z,13.60
2023-09-22T04:18:35.320Z,13.60
2023-09-22T04:19:03.351Z,13.60
2023-09-22T04:19:37.391Z,13.60
2023-09-22T04:20:06.669Z,13.50
2023-09-22T04:20:39.472Z,13.50
2023-09-22T04:21:07.358Z,13.50
2023-09-22T04:21:38.346Z,13.50
2023-09-22T04:22:11.536Z,13.50
2023-09-22T04:22:40.035Z,13.50
2023-09-22T04:23:14.189Z,13.50
2023-09-22T04:23:44.366Z,13.50
2023-09-22T04:24:15.297Z,13.50
2023-09-22T04:24:47.421Z,13.50
2023-09-22T04:25:17.940Z,13.50
2023-09-22T04:25:49.120Z,13.50
2023-09-22T04:26:18.230Z,13.50
2023-09-22T04:26:54.654Z,13.50
2023-09-22T04:27:20.017Z,13.50
2023-09-22T04:27:50.885Z,13.50
2023-09-22T04:28:24.360Z,13.50
2023-09-22T04:28:54.251Z,13.50
2023-09-22T04:29:24.852Z,13.50
2023-09-22T04:29:57.246Z,13.50
2023-09-22T04:30:27.625Z,13.50
2023-09-22T04:30:56.806Z,13.50
2023-09-22T04:31:28.427Z,13.50
2023-09-22T04:31:58.478Z,13.50
2023-09-22T04:32:29.851Z,13.50
2023-09-22T04:33:00.891Z,13.50
2023-09-22T04:33:33.942Z,13.50
2023-09-22T04:34:02.044Z,13.50
2023-09-22T04:34:36.064Z,13.50
2023-09-22T04:35:38.574Z,13.50
2023-09-22T04:36:06.951Z,13.50
2023-09-22T04:36:37.652Z,13.50
2023-09-22T04:37:09.794Z,13.50
2023-09-22T04:37:42.761Z,13.50
2023-09-22T04:38:28.585Z,13.50
2023-09-22T04:38:41.010Z,13.50
2023-09-22T04:39:13.508Z,13.50
2023-09-22T04:39:44.350Z,13.50
2023-09-22T04:40:20.463Z,13.50
2023-09-22T04:40:47.236Z,13.50
2023-09-22T04:41:17.700Z,13.50
2023-09-22T04:41:47.726Z,13.50
2023-09-22T04:42:19.397Z,13.50
2023-09-22T04:43:07.988Z,13.50
2023-09-22T04:43:20.277Z,13.50
2023-09-22T04:43:51.810Z,13.50
2023-09-22T04:44:54.729Z,13.50
2023-09-22T04:45:26.666Z,13.50
2023-09-22T04:45:57.947Z,13.50
2023-09-22T04:46:28.620Z,13.50
2023-09-22T04:46:58.149Z,13.50
2023-09-22T04:47:28.612Z,13.50
2023-09-22T04:47:59.902Z,13.40
2023-09-22T04:48:30.033Z,13.40
2023-09-22T04:49:01.972Z,13.40
2023-09-22T04:49:34.555Z,13.40
2023-09-22T04:50:06.829Z,13.40
2023-09-22T04:50:37.333Z,13.40
2023-09-22T04:51:06.068Z,13.40
2023-09-22T04:51:38.976Z,13.40
2023-09-22T04:52:08.214Z,13.40
2023-09-22T04:52:39.314Z,13.40
2023-09-22T04:53:12.279Z,13.40
2023-09-22T04:53:42.116Z,13.40
2023-09-22T04:54:14.191Z,13.40
2023-09-22T04:54:44.021Z,13.40
2023-09-22T04:55:14.128Z,13.40
2023-09-22T04:55:44.146Z,13.40
2023-09-22T04:56:17.412Z,13.40
2023-09-22T04:56:47.815Z,13.30
2023-09-22T04:57:17.989Z,13.30
2023-09-22T04:57:48.705Z,13.30
2023-09-22T04:58:22.331Z,13.30
2023-09-22T04:58:52.975Z,13.30
2023-09-22T04:59:22.830Z,13.30
2023-09-22T04:59:52.022Z,13.30
2023-09-22T05:00:27.520Z,13.30
2023-09-22T05:00:59.568Z,13.30
2023-09-22T05:01:27.779Z,13.30
2023-09-22T05:01:58.992Z,13.30
2023-09-22T05:02:28.721Z,13.30
2023-09-22T05:03:31.932Z,13.20
2023-09-22T05:04:01.361Z,13.20
2023-09-22T05:04:31.293Z,13.20
2023-09-22T05:05:02.779Z,13.20
2023-09-22T05:05:33.419Z,13.20
2023-09-22T05:06:07.025Z,13.20
2023-09-22T05:06:37.804Z,13.20
2023-09-22T05:07:08.647Z,13.20
2023-09-22T05:07:40.008Z,13.20
2023-09-22T05:08:08.926Z,13.10
2023-09-22T05:08:40.158Z,13.10
2023-09-22T05:09:10.357Z,13.10
2023-09-22T05:09:41.369Z,13.10
2023-09-22T05:10:13.264Z,13.10
2023-09-22T05:10:42.932Z,13.10
2023-09-22T05:11:16.452Z,13.00
2023-09-22T05:11:47.790Z,13.00
2023-09-22T05:12:18.115Z,13.00
2023-09-22T05:12:47.985Z,13.00
2023-09-22T05:13:18.398Z,13.00
2023-09-22T05:13:49.350Z,13.00
2023-09-22T05:14:21.174Z,13.00
2023-09-22T05:14:51.453Z,13.00
2023-09-22T05:15:27.898Z,13.00
2023-09-22T05:15:55.301Z,13.00
2023-09-22T05:16:26.289Z,13.00
2023-09-22T05:16:57.289Z,12.90
2023-09-22T05:17:28.046Z,12.90
2023-09-22T05:18:28.699Z,12.90
2023-09-22T05:18:59.814Z,12.90
2023-09-22T05:19:30.194Z,12.90
2023-09-22T05:20:02.327Z,12.80
2023-09-22T05:20:32.603Z,12.80
2023-09-22T05:21:03.165Z,12.80
2023-09-22T05:22:08.254Z,12.80
2023-09-22T05:22:40.585Z,12.80
2023-09-22T05:23:11.685Z,12.80
2023-09-22T05:23:40.397Z,12.80
2023-09-22T05:24:10.222Z,12.80
2023-09-22T05:24:40.916Z,12.80
2023-09-22T05:25:12.561Z,12.80
2023-09-22T05:25:43.111Z,12.80
2023-09-22T05:26:18.289Z,12.80
2023-09-22T05:26:46.930Z,12.80
2023-09-22T05:27:19.001Z,12.80
2023-09-22T05:27:48.060Z,12.70
2023-09-22T05:28:19.306Z,12.70
2023-09-22T05:28:49.852Z,12.70
2023-09-22T05:29:20.480Z,12.70
2023-09-22T05:29:50.786Z,12.70
2023-09-22T05:30:23.050Z,12.70
2023-09-22T05:30:53.335Z,12.70
2023-09-22T05:31:25.898Z,12.70
2023-09-22T05:31:59.173Z,12.70
2023-09-22T05:32:29.401Z,12.70
2023-09-22T05:32:59.610Z,12.70
2023-09-22T05:33:28.719Z,12.70
2023-09-22T05:33:59.286Z,12.70
2023-09-22T05:35:10.308Z,12.70
2023-09-22T05:35:32.982Z,12.70
2023-09-22T05:36:03.775Z,12.70
2023-09-22T05:36:33.700Z,12.70
2023-09-22T05:37:06.252Z,12.70
2023-09-22T05:37:38.294Z,12.60
2023-09-22T05:38:08.516Z,12.60
2023-09-22T05:38:39.790Z,12.60
2023-09-22T05:39:09.248Z,12.60
2023-09-22T05:39:40.262Z,12.60
2023-09-22T05:40:11.711Z,12.60
2023-09-22T05:40:42.868Z,12.60
2023-09-22T05:41:12.456Z,12.60
2023-09-22T05:41:43.978Z,12.60
2023-09-22T05:42:15.648Z,12.60
2023-09-22T05:42:48.826Z,12.60
2023-09-22T05:43:33.717Z,12.60
2023-09-22T05:43:49.098Z,12.60
2023-09-22T05:44:19.889Z,12.60
2023-09-22T05:44:51.427Z,12.60
2023-09-22T05:45:22.849Z,12.60
2023-09-22T05:45:52.366Z,12.60
2023-09-22T05:46:23.016Z,12.60
2023-09-22T05:46:54.085Z,12.60
2023-09-22T05:47:27.172Z,12.60
2023-09-22T05:47:59.776Z,12.60
2023-09-22T05:49:06.824Z,12.60
2023-09-22T05:49:18.165Z,12.60
2023-09-22T05:49:30.908Z,12.60
2023-09-22T05:49:59.932Z,12.60
2023-09-22T05:50:31.897Z,12.60
2023-09-22T05:51:01.895Z,12.60
2023-09-22T05:51:33.258Z,12.60
2023-09-22T05:52:04.619Z,12.60
2023-09-22T05:52:51.704Z,12.60
2023-09-22T05:53:08.378Z,12.60
2023-09-22T05:53:40.217Z,12.60
2023-09-22T05:54:09.343Z,12.60
2023-09-22T05:54:39.973Z,12.60
2023-09-22T05:55:13.405Z,12.60
2023-09-22T05:55:41.481Z,12.60
2023-09-22T05:56:12.588Z,12.60
2023-09-22T05:56:42.874Z,12.60
2023-09-22T05:57:13.511Z,12.60
2023-09-22T05:57:44.891Z,12.50
2023-09-22T05:58:19.063Z,12.50
2023-09-22T05:58:49.930Z,12.50
2023-09-22T05:59:19.785Z,12.50
2023-09-22T05:59:49.671Z,12.50
2023-09-22T06:00:21.645Z,12.50
2023-09-22T06:00:50.906Z,12.50
2023-09-22T06:01:41.060Z,12.50
2023-09-22T06:01:52.599Z,12.50
2023-09-22T06:02:29.435Z,12.60
2023-09-22T06:02:59.403Z,12.60
2023-09-22T06:03:27.619Z,12.60
2023-09-22T06:04:00.446Z,12.60
2023-09-22T06:04:30.504Z,12.60
2023-09-22T06:05:00.754Z,12.60
2023-09-22T06:05:30.205Z,12.60
2023-09-22T06:06:01.372Z,12.60
2023-09-22T06:06:38.640Z,12.50
2023-09-22T06:07:03.355Z,12.50
2023-09-22T06:07:33.685Z,12.60
2023-09-22T06:08:04.775Z,12.60
2023-09-22T06:08:37.079Z,12.60
2023-09-22T06:09:09.072Z,12.60
2023-09-22T06:09:40.440Z,12.60
2023-09-22T06:10:10.281Z,12.60
2023-09-22T06:10:41.453Z,12.60
2023-09-22T06:11:11.486Z,12.60
2023-09-22T06:11:41.899Z,12.60
2023-09-22T06:12:13.410Z,12.60
2023-09-22T06:12:43.740Z,12.60
2023-09-22T06:13:14.788Z,12.60
2023-09-22T06:13:49.211Z,12.60
2023-09-22T06:14:19.555Z,12.70
2023-09-22T06:14:49.653Z,12.70
2023-09-22T06:15:20.493Z,12.70
2023-09-22T06:15:50.820Z,12.70
2023-09-22T06:16:21.176Z,12.70
2023-09-22T06:16:52.137Z,12.70
2023-09-22T06:17:23.788Z,12.70
2023-09-22T06:17:55.234Z,12.70
2023-09-22T06:18:26.156Z,12.80
2023-09-22T06:18:58.522Z,12.80
2023-09-22T06:19:28.052Z,12.80
2023-09-22T06:19:59.817Z,12.80
2023-09-22T06:20:31.722Z,12.80
2023-09-22T06:21:01.138Z,12.80
2023-09-22T06:21:31.092Z,12.80
2023-09-22T06:22:02.315Z,12.80
2023-09-22T06:22:33.248Z,12.80
2023-09-22T06:23:04.729Z,12.80
2023-09-22T06:23:35.001Z,12.80
2023-09-22T06:24:11.624Z,12.80
2023-09-22T06:24:41.797Z,12.70
2023-09-22T06:25:13.058Z,12.70
2023-09-22T06:25:41.433Z,12.70
2023-09-22T06:26:10.996Z,12.70
2023-09-22T06:26:41.021Z,12.70
2023-09-22T06:27:12.704Z,12.70
2023-09-22T06:27:43.016Z,12.70
2023-09-22T06:28:31.807Z,12.70
2023-09-22T06:28:45.115Z,12.70
2023-09-22T06:29:19.781Z,12.70
2023-09-22T06:29:51.383Z,12.70
2023-09-22T06:30:23.090Z,12.70
2023-09-22T06:30:51.792Z,12.70
2023-09-22T06:31:40.844Z,12.70
2023-09-22T06:31:51.942Z,12.70
2023-09-22T06:32:23.345Z,12.70
2023-09-22T06:32:53.435Z,12.70
2023-09-22T06:33:24.005Z,12.70
2023-09-22T06:33:55.542Z,12.70
2023-09-22T06:34:28.361Z,12.70
2023-09-22T06:34:59.626Z,12.70
2023-09-22T06:35:29.857Z,12.70
2023-09-22T06:36:01.477Z,12.70
2023-09-22T06:36:31.215Z,12.70
2023-09-22T06:37:01.546Z,12.70
2023-09-22T06:37:51.542Z,12.70
2023-09-22T06:38:05.211Z,12.70
2023-09-22T06:38:35.098Z,12.70
2023-09-22T06:39:07.060Z,12.70
2023-09-22T06:39:37.163Z,12.70
2023-09-22T06:40:11.077Z,12.70
2023-09-22T06:40:41.678Z,12.70
2023-09-22T06:41:12.424Z,12.60
2023-09-22T06:41:40.929Z,12.60
2023-09-22T06:42:11.491Z,12.70
2023-09-22T06:42:42.043Z,12.70
2023-09-22T06:43:23.094Z,12.70
2023-09-22T06:43:56.613Z,12.70
2023-09-22T06:44:45.614Z,12.60
2023-09-22T06:45:36.353Z,12.70
2023-09-22T06:45:50.642Z,12.70
2023-09-22T06:46:21.600Z,12.70
2023-09-22T06:46:53.446Z,12.70
2023-09-22T06:47:22.193Z,12.70
2023-09-22T06:47:52.269Z,12.70
2023-09-22T06:48:23.219Z,12.70
2023-09-22T06:48:54.349Z,12.70
2023-09-22T06:49:27.534Z,12.70
2023-09-22T06:50:28.215Z,12.60
2023-09-22T06:51:01.990Z,12.60
2023-09-22T06:51:30.949Z,12.60
2023-09-22T06:52:01.497Z,12.60
2023-09-22T06:52:32.807Z,12.60
2023-09-22T06:53:03.249Z,12.60
2023-09-22T06:53:32.716Z,12.60
2023-09-22T06:54:04.943Z,12.60